createdAt,value
2022-08-25T00:00:09.543Z,1010.07
2022-08-25T00:01:09.141Z,1010.03
2022-08-25T00:02:09.940Z,1010.02
2022-08-25T00:03:09.196Z,1010.03
2022-08-25T00:04:09.235Z,1010.02
2022-08-25T00:05:09.223Z,1010.00
2022-08-25T00:06:09.323Z,1010.02
2022-08-25T00:07:09.038Z,1010.06
2022-08-25T00:08:09.037Z,1010.05
2022-08-25T00:09:09.055Z,1010.05
2022-08-25T00:10:09.011Z,1010.03
2022-08-25T00:11:09.012Z,1010.03
2022-08-25T00:12:08.984Z,1009.99
2022-08-25T00:13:08.989Z,1010.03
2022-08-25T00:14:09.000Z,1010.02
2022-08-25T00:15:08.977Z,1010.02
2022-08-25T00:16:09.023Z,1010.01
2022-08-25T00:17:08.994Z,1010.02
2022-08-25T00:18:19.556Z,1010.04
2022-08-25T00:19:09.868Z,1010.02
2022-08-25T00:20:08.897Z,1010.07
2022-08-25T00:21:08.857Z,1010.05
2022-08-25T00:22:08.918Z,1010.03
2022-08-25T00:23:08.866Z,1010.08
2022-08-25T00:24:08.880Z,1010.02
2022-08-25T00:25:08.947Z,1010.05
2022-08-25T00:26:08.838Z,1010.06
2022-08-25T00:27:08.863Z,1010.04
2022-08-25T00:28:08.945Z,1010.04
2022-08-25T00:29:08.897Z,1010.03
2022-08-25T00:30:08.782Z,1010.03
2022-08-25T00:31:08.948Z,1010.03
2022-08-25T00:32:08.785Z,1010.05
2022-08-25T00:33:08.775Z,1010.07
2022-08-25T00:34:08.756Z,1010.06
2022-08-25T00:35:08.746Z,1010.07
2022-08-25T00:36:08.754Z,1010.06
2022-08-25T00:37:08.751Z,1010.08
2022-08-25T00:38:08.706Z,1010.07
2022-08-25T00:39:08.699Z,1010.06
2022-08-25T00:40:08.694Z,1010.04
2022-08-25T00:41:08.699Z,1010.05
2022-08-25T00:42:11.729Z,1010.04
2022-08-25T00:43:09.650Z,1010.08
2022-08-25T00:44:08.648Z,1010.04
2022-08-25T00:45:08.654Z,1010.05
2022-08-25T00:46:08.667Z,1009.99
2022-08-25T00:47:08.646Z,1010.04
2022-08-25T00:48:08.606Z,1010.01
2022-08-25T00:49:08.567Z,1010.06
2022-08-25T00:50:09.577Z,1010.04
2022-08-25T00:51:08.582Z,1010.07
2022-08-25T00:52:08.577Z,1010.04
2022-08-25T00:53:08.542Z,1010.07
2022-08-25T00:54:08.539Z,1010.03
2022-08-25T00:55:08.657Z,1010.07
2022-08-25T00:56:08.516Z,1010.06
2022-08-25T00:57:08.472Z,1010.08
2022-08-25T00:58:08.472Z,1010.09
2022-08-25T00:59:08.484Z,1010.04
2022-08-25T01:00:08.480Z,1010.01
2022-08-25T01:01:08.504Z,1010.04
2022-08-25T01:02:13.549Z,1010.05
2022-08-25T01:03:09.426Z,1010.04
2022-08-25T01:04:08.404Z,1010.07
2022-08-25T01:05:08.390Z,1010.08
2022-08-25T01:06:08.382Z,1010.09
2022-08-25T01:07:08.367Z,1010.08
2022-08-25T01:08:09.388Z,1010.07
2022-08-25T01:09:08.375Z,1010.08
2022-08-25T01:10:08.382Z,1010.10
2022-08-25T01:11:08.354Z,1010.10
2022-08-25T01:12:08.329Z,1010.10
2022-08-25T01:13:16.419Z,1010.10
2022-08-25T01:14:09.302Z,1010.13
2022-08-25T01:15:08.306Z,1010.09
2022-08-25T01:16:08.399Z,1010.14
2022-08-25T01:17:08.406Z,1010.08
2022-08-25T01:18:08.315Z,1010.09
2022-08-25T01:19:08.272Z,1010.09
2022-08-25T01:20:08.242Z,1010.05
2022-08-25T01:21:08.258Z,1010.11
2022-08-25T01:22:08.213Z,1010.09
2022-08-25T01:23:08.195Z,1010.10
2022-08-25T01:24:08.303Z,1010.07
2022-08-25T01:25:08.172Z,1010.11
2022-08-25T01:26:08.148Z,1010.06
2022-08-25T01:27:08.184Z,1010.08
2022-08-25T01:28:08.191Z,1010.05
2022-08-25T01:29:08.082Z,1010.13
2022-08-25T01:30:08.133Z,1010.11
2022-08-25T01:31:23.528Z,1010.10
2022-08-25T01:32:09.107Z,1010.07
2022-08-25T01:33:08.116Z,1010.08
2022-08-25T01:34:08.097Z,1010.12
2022-08-25T01:35:08.118Z,1010.07
2022-08-25T01:36:08.039Z,1010.04
2022-08-25T01:37:08.045Z,1010.08
2022-08-25T01:38:08.066Z,1010.04
2022-08-25T01:39:08.027Z,1010.06
2022-08-25T01:40:08.079Z,1010.05
2022-08-25T01:41:08.004Z,1010.06
2022-08-25T01:42:07.975Z,1010.07
2022-08-25T01:43:07.992Z,1010.04
2022-08-25T01:44:08.776Z,1010.05
2022-08-25T01:45:08.972Z,1010.00
2022-08-25T01:46:07.997Z,1010.03
2022-08-25T01:47:07.920Z,1010.06
2022-08-25T01:48:07.906Z,1010.03
2022-08-25T01:49:07.938Z,1010.04
2022-08-25T01:50:07.946Z,1010.03
2022-08-25T01:51:07.917Z,1010.05
2022-08-25T01:52:07.911Z,1010.08
2022-08-25T01:53:07.862Z,1010.05
2022-08-25T01:54:07.866Z,1010.06
2022-08-25T01:55:07.845Z,1010.09
2022-08-25T01:56:09.767Z,1010.08
2022-08-25T01:57:07.797Z,1010.07
2022-08-25T01:58:07.814Z,1010.08
2022-08-25T01:59:07.793Z,1010.04
2022-08-25T02:00:07.796Z,1010.07
2022-08-25T02:01:07.832Z,1010.04
2022-08-25T02:02:07.821Z,1010.00
2022-08-25T02:03:07.793Z,1010.03
2022-08-25T02:04:08.757Z,1009.99
2022-08-25T02:05:07.742Z,1010.03
2022-08-25T02:06:07.734Z,1009.99
2022-08-25T02:07:07.723Z,1009.99
2022-08-25T02:08:07.729Z,1010.04
2022-08-25T02:09:07.735Z,1010.04
2022-08-25T02:10:07.666Z,1010.03
2022-08-25T02:11:07.677Z,1010.06
2022-08-25T02:12:07.658Z,1010.03
2022-08-25T02:13:08.375Z,1010.01
2022-08-25T02:14:07.701Z,1010.07
2022-08-25T02:15:07.643Z,1010.07
2022-08-25T02:16:07.668Z,1010.05
2022-08-25T02:17:07.661Z,1010.03
2022-08-25T02:18:07.630Z,1010.08
2022-08-25T02:19:07.586Z,1010.08
2022-08-25T02:20:07.556Z,1010.05
2022-08-25T02:21:07.576Z,1010.08
2022-08-25T02:22:07.590Z,1010.08
2022-08-25T02:23:07.545Z,1010.05
2022-08-25T02:24:07.548Z,1010.10
2022-08-25T02:25:07.585Z,1010.10
2022-08-25T02:26:07.539Z,1010.11
2022-08-25T02:27:07.505Z,1010.13
2022-08-25T02:28:07.476Z,1010.08
2022-08-25T02:29:07.525Z,1010.12
2022-08-25T02:30:07.498Z,1010.10
2022-08-25T02:31:07.561Z,1010.11
2022-08-25T02:32:07.435Z,1010.10
2022-08-25T02:33:07.426Z,1010.07
2022-08-25T02:34:07.621Z,1010.06
2022-08-25T02:35:07.454Z,1010.08
2022-08-25T02:36:07.370Z,1010.05
2022-08-25T02:37:07.386Z,1010.02
2022-08-25T02:38:07.389Z,1010.04
2022-08-25T02:39:07.373Z,1010.04
2022-08-25T02:40:07.395Z,1010.07
2022-08-25T02:41:07.356Z,1010.06
2022-08-25T02:42:07.296Z,1010.05
2022-08-25T02:43:07.313Z,1010.08
2022-08-25T02:44:07.354Z,1010.05
2022-08-25T02:45:07.336Z,1010.04
2022-08-25T02:46:07.378Z,1010.04
2022-08-25T02:47:07.386Z,1010.01
2022-08-25T02:48:07.330Z,1010.01
2022-08-25T02:51:20.280Z,1009.93
2022-08-25T02:52:20.155Z,1009.97
2022-08-25T02:53:20.174Z,1009.93
2022-08-25T02:54:20.082Z,1009.95
2022-08-25T02:55:20.078Z,1009.93
2022-08-25T02:56:20.014Z,1009.91
2022-08-25T02:57:19.995Z,1009.91
2022-08-25T03:00:10.412Z,1009.92
2022-08-25T03:01:10.218Z,1009.93
2022-08-25T03:02:10.092Z,1009.94
2022-08-25T03:03:10.098Z,1009.95
2022-08-25T03:04:10.276Z,1009.92
2022-08-25T03:05:10.113Z,1009.97
2022-08-25T03:06:10.057Z,1010.00
2022-08-25T03:07:10.078Z,1009.97
2022-08-25T03:08:10.038Z,1009.96
2022-08-25T03:09:10.045Z,1009.96
2022-08-25T03:10:09.991Z,1009.94
2022-08-25T03:11:10.017Z,1009.97
2022-08-25T03:12:10.019Z,1009.95
2022-08-25T03:13:10.009Z,1009.95
2022-08-25T03:14:09.971Z,1009.96
2022-08-25T03:15:13.114Z,1009.94
2022-08-25T03:16:10.966Z,1009.98
2022-08-25T03:17:10.975Z,1009.98
2022-08-25T03:18:09.906Z,1009.93
2022-08-25T03:19:09.986Z,1009.95
2022-08-25T03:20:10.064Z,1009.93
2022-08-25T03:21:09.964Z,1009.91
2022-08-25T03:22:10.222Z,1009.89
2022-08-25T03:23:10.199Z,1009.91
2022-08-25T03:24:09.937Z,1009.91
2022-08-25T03:25:09.868Z,1009.92
2022-08-25T03:26:09.994Z,1009.92
2022-08-25T03:27:10.721Z,1009.92
2022-08-25T03:28:10.072Z,1009.88
2022-08-25T03:29:09.903Z,1009.93
2022-08-25T03:30:09.773Z,1009.92
2022-08-25T03:31:09.876Z,1009.98
2022-08-25T03:32:10.255Z,1009.94
2022-08-25T03:33:09.791Z,1009.96
2022-08-25T03:34:09.829Z,1009.96
2022-08-25T03:35:09.870Z,1010.00
2022-08-25T03:36:09.710Z,1009.99
2022-08-25T03:37:09.716Z,1010.01
2022-08-25T03:38:10.155Z,1010.02
2022-08-25T03:39:09.769Z,1010.04
2022-08-25T03:40:09.811Z,1010.04
2022-08-25T03:41:10.674Z,1010.03
2022-08-25T03:42:09.747Z,1010.04
2022-08-25T03:43:09.733Z,1010.03
2022-08-25T03:44:09.671Z,1010.04
2022-08-25T03:45:09.605Z,1010.04
2022-08-25T03:46:09.678Z,1010.00
2022-08-25T03:47:09.854Z,1010.02
2022-08-25T03:48:09.623Z,1010.02
2022-08-25T03:49:09.634Z,1009.99
2022-08-25T03:50:09.858Z,1010.00
2022-08-25T03:51:09.632Z,1009.98
2022-08-25T03:52:09.715Z,1009.99
2022-08-25T03:53:09.609Z,1009.96
2022-08-25T03:54:09.545Z,1009.95
2022-08-25T03:55:10.021Z,1009.98
2022-08-25T03:56:09.528Z,1009.95
2022-08-25T03:57:09.585Z,1009.97
2022-08-25T03:58:11.631Z,1009.96
2022-08-25T03:59:09.602Z,1009.89
2022-08-25T04:00:09.554Z,1009.86
2022-08-25T04:01:09.563Z,1009.85
2022-08-25T04:02:09.500Z,1009.84
2022-08-25T04:03:09.777Z,1009.87
2022-08-25T04:04:09.529Z,1009.83
2022-08-25T04:05:09.414Z,1009.83
2022-08-25T04:06:09.887Z,1009.82
2022-08-25T04:07:09.843Z,1009.84
2022-08-25T04:08:13.723Z,1009.83
2022-08-25T04:09:09.744Z,1009.80
2022-08-25T04:10:09.731Z,1009.80
2022-08-25T04:11:09.388Z,1009.79
2022-08-25T04:12:09.375Z,1009.78
2022-08-25T04:13:09.452Z,1009.73
2022-08-25T04:14:09.398Z,1009.71
2022-08-25T04:15:09.383Z,1009.74
2022-08-25T04:16:09.505Z,1009.66
2022-08-25T04:17:09.276Z,1009.70
2022-08-25T04:18:09.276Z,1009.69
2022-08-25T04:19:09.316Z,1009.65
2022-08-25T04:20:09.581Z,1009.64
2022-08-25T04:21:09.355Z,1009.65
2022-08-25T04:22:09.351Z,1009.60
2022-08-25T04:23:09.666Z,1009.64
2022-08-25T04:24:09.738Z,1009.60
2022-08-25T04:25:09.315Z,1009.58
2022-08-25T04:26:09.326Z,1009.65
2022-08-25T04:27:09.252Z,1009.64
2022-08-25T04:28:09.390Z,1009.62
2022-08-25T04:29:10.989Z,1009.61
2022-08-25T04:30:09.132Z,1009.62
2022-08-25T04:31:09.110Z,1009.61
2022-08-25T04:32:09.201Z,1009.61
2022-08-25T04:33:09.187Z,1009.65
2022-08-25T04:34:19.503Z,1009.70
2022-08-25T04:35:10.433Z,1009.65
2022-08-25T04:36:12.216Z,1009.66
2022-08-25T04:37:09.483Z,1009.66
2022-08-25T04:38:09.083Z,1009.69
2022-08-25T04:39:09.035Z,1009.69
2022-08-25T04:40:09.158Z,1009.64
2022-08-25T04:41:09.143Z,1009.62
2022-08-25T04:42:09.985Z,1009.63
2022-08-25T04:43:09.005Z,1009.62
2022-08-25T04:44:09.093Z,1009.63
2022-08-25T04:45:09.933Z,1009.64
2022-08-25T04:46:09.219Z,1009.65
2022-08-25T04:47:09.049Z,1009.64
2022-08-25T04:48:09.046Z,1009.61
2022-08-25T04:49:09.046Z,1009.60
2022-08-25T04:50:08.912Z,1009.60
2022-08-25T04:51:08.877Z,1009.67
2022-08-25T04:52:14.340Z,1009.66
2022-08-25T04:53:09.968Z,1009.62
2022-08-25T04:54:09.008Z,1009.64
2022-08-25T04:55:08.852Z,1009.64
2022-08-25T04:56:08.843Z,1009.66
2022-08-25T04:57:08.829Z,1009.59
2022-08-25T04:58:14.742Z,1009.59
2022-08-25T04:59:09.935Z,1009.64
2022-08-25T05:00:08.817Z,1009.65
2022-08-25T05:01:08.957Z,1009.60
2022-08-25T05:02:08.815Z,1009.64
2022-08-25T05:03:08.861Z,1009.64
2022-08-25T05:04:08.792Z,1009.64
2022-08-25T05:05:09.756Z,1009.67
2022-08-25T05:06:11.787Z,1009.57
2022-08-25T05:07:09.758Z,1009.54
2022-08-25T05:08:08.772Z,1009.53
2022-08-25T05:09:08.732Z,1009.53
2022-08-25T05:10:08.684Z,1009.58
2022-08-25T05:11:08.780Z,1009.58
2022-08-25T05:12:08.736Z,1009.56
2022-08-25T05:13:08.692Z,1009.58
2022-08-25T05:14:08.658Z,1009.59
2022-08-25T05:15:08.705Z,1009.57
2022-08-25T05:16:09.940Z,1009.56
2022-08-25T05:17:09.544Z,1009.56
2022-08-25T05:18:08.796Z,1009.53
2022-08-25T05:19:08.633Z,1009.54
2022-08-25T05:20:08.716Z,1009.50
2022-08-25T05:21:08.567Z,1009.47
2022-08-25T05:22:08.533Z,1009.52
2022-08-25T05:23:08.625Z,1009.50
2022-08-25T05:24:08.550Z,1009.54
2022-08-25T05:25:08.591Z,1009.53
2022-08-25T05:26:08.563Z,1009.54
2022-08-25T05:27:08.496Z,1009.57
2022-08-25T05:28:08.486Z,1009.60
2022-08-25T05:29:08.529Z,1009.55
2022-08-25T05:30:08.481Z,1009.53
2022-08-25T05:31:08.561Z,1009.56
2022-08-25T05:32:08.573Z,1009.54
2022-08-25T05:33:08.544Z,1009.53
2022-08-25T05:34:08.444Z,1009.53
2022-08-25T05:35:08.411Z,1009.55
2022-08-25T05:36:08.386Z,1009.51
2022-08-25T05:37:12.037Z,1009.51
2022-08-25T05:38:08.531Z,1009.50
2022-08-25T05:39:09.414Z,1009.55
2022-08-25T05:40:08.519Z,1009.51
2022-08-25T05:41:08.408Z,1009.50
2022-08-25T05:42:08.419Z,1009.49
2022-08-25T05:43:08.603Z,1009.46
2022-08-25T05:44:08.291Z,1009.44
2022-08-25T05:45:08.413Z,1009.46
2022-08-25T05:46:08.431Z,1009.49
2022-08-25T05:47:08.617Z,1009.47
2022-08-25T05:48:08.582Z,1009.41
2022-08-25T05:49:08.634Z,1009.38
2022-08-25T05:50:08.252Z,1009.43
2022-08-25T05:51:08.244Z,1009.42
2022-08-25T05:52:08.285Z,1009.48
2022-08-25T05:53:08.249Z,1009.48
2022-08-25T05:54:08.239Z,1009.49
2022-08-25T05:55:08.480Z,1009.53
2022-08-25T05:56:08.189Z,1009.51
2022-08-25T05:57:08.177Z,1009.56
2022-08-25T05:58:08.162Z,1009.54
2022-08-25T05:59:09.738Z,1009.56
2022-08-25T06:00:08.227Z,1009.59
2022-08-25T06:01:08.195Z,1009.57
2022-08-25T06:02:08.168Z,1009.60
2022-08-25T06:03:08.122Z,1009.59
2022-08-25T06:04:08.139Z,1009.60
2022-08-25T06:05:08.150Z,1009.55
2022-08-25T06:06:08.050Z,1009.55
2022-08-25T06:07:08.183Z,1009.58
2022-08-25T06:08:08.124Z,1009.53
2022-08-25T06:09:08.120Z,1009.52
2022-08-25T06:10:08.333Z,1009.55
2022-08-25T06:11:08.068Z,1009.59
2022-08-25T06:12:08.360Z,1009.48
2022-08-25T06:13:08.094Z,1009.53
2022-08-25T06:14:07.969Z,1009.49
2022-08-25T06:15:07.993Z,1009.48
2022-08-25T06:16:08.032Z,1009.43
2022-08-25T06:17:08.084Z,1009.48
2022-08-25T06:18:08.112Z,1009.46
2022-08-25T06:19:07.950Z,1009.40
2022-08-25T06:20:08.290Z,1009.41
2022-08-25T06:21:08.852Z,1009.41
2022-08-25T06:22:07.888Z,1009.43
2022-08-25T06:23:07.983Z,1009.39
2022-08-25T06:24:10.985Z,1009.38
2022-08-25T06:25:09.052Z,1009.41
2022-08-25T06:26:08.665Z,1009.39
2022-08-25T06:27:08.228Z,1009.33
2022-08-25T06:28:08.374Z,1009.35
2022-08-25T06:29:08.063Z,1009.37
2022-08-25T06:30:08.236Z,1009.33
2022-08-25T06:31:08.195Z,1009.29
2022-08-25T06:32:08.290Z,1009.29
2022-08-25T06:33:08.205Z,1009.27
2022-08-25T06:34:08.804Z,1009.26
2022-08-25T06:35:09.017Z,1009.24
2022-08-25T06:36:07.916Z,1009.22
2022-08-25T06:37:07.907Z,1009.25
2022-08-25T06:38:08.270Z,1009.24
2022-08-25T06:39:08.155Z,1009.24
2022-08-25T06:40:08.063Z,1009.24
2022-08-25T06:41:07.794Z,1009.26
2022-08-25T06:42:08.674Z,1009.24
2022-08-25T06:43:07.793Z,1009.26
2022-08-25T06:44:08.071Z,1009.28
2022-08-25T06:45:08.035Z,1009.30
2022-08-25T06:46:07.776Z,1009.27
2022-08-25T06:47:07.856Z,1009.35
2022-08-25T06:48:08.439Z,1009.35
2022-08-25T06:49:07.957Z,1009.34
2022-08-25T06:50:08.063Z,1009.31
2022-08-25T06:51:07.903Z,1009.27
2022-08-25T06:52:07.667Z,1009.29
2022-08-25T06:53:14.506Z,1009.27
2022-08-25T06:54:09.535Z,1009.28
2022-08-25T06:55:07.469Z,1009.26
2022-08-25T06:56:10.157Z,1009.26
2022-08-25T06:57:07.458Z,1009.27
2022-08-25T06:58:10.208Z,1009.26
2022-08-25T06:59:07.425Z,1009.28
2022-08-25T07:00:07.419Z,1009.26
2022-08-25T07:01:07.462Z,1009.23
2022-08-25T07:02:08.468Z,1009.23
2022-08-25T07:03:07.373Z,1009.25
2022-08-25T07:04:11.792Z,1009.28
2022-08-25T07:05:13.184Z,1009.30
2022-08-25T07:06:08.339Z,1009.30
2022-08-25T07:07:07.348Z,1009.29
2022-08-25T07:08:07.329Z,1009.30
2022-08-25T07:09:07.320Z,1009.22
2022-08-25T07:10:07.312Z,1009.19
2022-08-25T07:11:07.362Z,1009.22
2022-08-25T07:12:08.282Z,1009.20
2022-08-25T07:13:07.277Z,1009.23
2022-08-25T07:14:07.271Z,1009.27
2022-08-25T07:15:19.672Z,1009.22
2022-08-25T07:16:08.318Z,1009.26
2022-08-25T07:17:12.020Z,1009.27
2022-08-25T07:18:08.224Z,1009.28
2022-08-25T07:19:08.289Z,1009.23
2022-08-25T07:20:07.247Z,1009.24
2022-08-25T07:21:08.902Z,1009.28
2022-08-25T07:22:07.184Z,1009.25
2022-08-25T07:23:07.168Z,1009.24
2022-08-25T07:24:07.157Z,1009.25
2022-08-25T07:25:07.143Z,1009.24
2022-08-25T07:26:15.684Z,1009.24
2022-08-25T07:27:08.128Z,1009.25
2022-08-25T07:28:07.126Z,1009.24
2022-08-25T07:29:07.097Z,1009.24
2022-08-25T07:30:07.083Z,1009.21
2022-08-25T07:31:07.127Z,1009.24
2022-08-25T07:32:07.065Z,1009.27
2022-08-25T07:33:07.313Z,1009.24
2022-08-25T07:34:07.048Z,1009.26
2022-08-25T07:35:07.046Z,1009.30
2022-08-25T07:36:07.026Z,1009.30
2022-08-25T07:37:07.016Z,1009.30
2022-08-25T07:38:07.006Z,1009.28
2022-08-25T07:39:06.984Z,1009.31
2022-08-25T07:40:07.073Z,1009.32
2022-08-25T07:41:06.977Z,1009.32
2022-08-25T07:42:11.932Z,1009.34
2022-08-25T07:43:08.003Z,1009.33
2022-08-25T07:44:06.933Z,1009.30
2022-08-25T07:45:07.316Z,1009.26
2022-08-25T07:46:06.931Z,1009.30
2022-08-25T07:47:06.919Z,1009.30
2022-08-25T07:48:06.937Z,1009.29
2022-08-25T07:49:16.337Z,1009.25
2022-08-25T07:50:07.869Z,1009.25
2022-08-25T07:51:07.570Z,1009.25
2022-08-25T07:52:07.054Z,1009.28
2022-08-25T07:53:07.145Z,1009.27
2022-08-25T07:54:06.829Z,1009.30
2022-08-25T07:55:08.156Z,1009.30
2022-08-25T07:56:06.813Z,1009.28
2022-08-25T07:57:06.795Z,1009.27
2022-08-25T07:58:06.926Z,1009.30
2022-08-25T07:59:07.734Z,1009.31
2022-08-25T08:00:06.766Z,1009.33
2022-08-25T08:01:06.753Z,1009.30
2022-08-25T08:02:06.793Z,1009.32
2022-08-25T08:03:07.003Z,1009.31
2022-08-25T08:04:06.775Z,1009.33
2022-08-25T08:05:09.568Z,1009.30
2022-08-25T08:06:06.708Z,1009.30
2022-08-25T08:07:06.689Z,1009.28
2022-08-25T08:08:07.845Z,1009.30
2022-08-25T08:09:06.661Z,1009.29
2022-08-25T08:10:42.370Z,1009.28
2022-08-25T08:11:07.651Z,1009.28
2022-08-25T08:12:06.851Z,1009.33
2022-08-25T08:13:07.700Z,1009.26
2022-08-25T08:14:06.608Z,1009.30
2022-08-25T08:15:10.325Z,1009.29
2022-08-25T08:16:06.654Z,1009.24
2022-08-25T08:17:06.605Z,1009.20
2022-08-25T08:18:07.296Z,1009.23
2022-08-25T08:19:06.561Z,1009.20
2022-08-25T08:20:06.552Z,1009.22
2022-08-25T08:21:06.550Z,1009.25
2022-08-25T08:22:06.525Z,1009.18
2022-08-25T08:23:06.718Z,1009.16
2022-08-25T08:24:14.783Z,1009.17
2022-08-25T08:25:10.576Z,1009.22
2022-08-25T08:26:06.495Z,1009.23
2022-08-25T08:27:06.477Z,1009.17
2022-08-25T08:28:07.319Z,1009.21
2022-08-25T08:29:06.448Z,1009.16
2022-08-25T08:30:06.430Z,1009.16
2022-08-25T08:31:06.525Z,1009.17
2022-08-25T08:32:06.417Z,1009.17
2022-08-25T08:33:10.030Z,1009.14
2022-08-25T08:34:06.413Z,1009.19
2022-08-25T08:35:06.394Z,1009.16
2022-08-25T08:36:06.395Z,1009.11
2022-08-25T08:37:06.366Z,1009.13
2022-08-25T08:38:14.796Z,1009.15
2022-08-25T08:39:08.062Z,1009.10
2022-08-25T08:40:06.414Z,1009.14
2022-08-25T08:41:06.312Z,1009.04
2022-08-25T08:42:11.276Z,1008.98
2022-08-25T08:43:13.339Z,1009.03
2022-08-25T08:44:07.284Z,1009.04
2022-08-25T08:45:06.271Z,1009.03
2022-08-25T08:46:06.292Z,1009.02
2022-08-25T08:47:08.988Z,1008.97
2022-08-25T08:48:06.712Z,1009.01
2022-08-25T08:49:06.259Z,1008.98
2022-08-25T08:50:06.221Z,1009.01
2022-08-25T08:51:09.717Z,1009.04
2022-08-25T08:52:06.203Z,1009.06
2022-08-25T08:53:06.254Z,1009.00
2022-08-25T08:54:06.196Z,1009.03
2022-08-25T08:55:07.194Z,1009.00
2022-08-25T08:56:06.158Z,1008.97
2022-08-25T08:57:06.154Z,1008.97
2022-08-25T08:58:06.314Z,1008.88
2022-08-25T08:59:06.596Z,1008.90
2022-08-25T09:00:06.122Z,1008.90
2022-08-25T09:01:06.116Z,1008.88
2022-08-25T09:02:06.176Z,1008.83
2022-08-25T09:03:07.109Z,1008.81
2022-08-25T09:04:06.083Z,1008.83
2022-08-25T09:05:06.056Z,1008.91
2022-08-25T09:06:06.795Z,1008.86
2022-08-25T09:07:06.045Z,1008.86
2022-08-25T09:08:06.198Z,1008.84
2022-08-25T09:09:06.706Z,1008.86
2022-08-25T09:10:06.023Z,1008.81
2022-08-25T09:11:06.014Z,1008.75
2022-08-25T09:12:05.994Z,1008.76
2022-08-25T09:13:11.834Z,1008.77
2022-08-25T09:14:07.016Z,1008.73
2022-08-25T09:15:12.775Z,1008.77
2022-08-25T09:16:06.987Z,1008.75
2022-08-25T09:17:05.935Z,1008.74
2022-08-25T09:18:05.948Z,1008.73
2022-08-25T09:19:05.917Z,1008.77
2022-08-25T09:20:05.908Z,1008.79
2022-08-25T09:21:07.250Z,1008.76
2022-08-25T09:22:35.164Z,1008.74
2022-08-25T09:23:06.880Z,1008.70
2022-08-25T09:24:05.876Z,1008.69
2022-08-25T09:25:08.669Z,1008.68
2022-08-25T09:26:05.850Z,1008.64
2022-08-25T09:27:05.842Z,1008.63
2022-08-25T09:28:06.065Z,1008.66
2022-08-25T09:29:06.206Z,1008.67
2022-08-25T09:30:05.825Z,1008.67
2022-08-25T09:31:05.851Z,1008.63
2022-08-25T09:32:05.782Z,1008.66
2022-08-25T09:33:05.774Z,1008.63
2022-08-25T09:34:05.793Z,1008.60
2022-08-25T09:35:05.761Z,1008.57
2022-08-25T09:36:06.275Z,1008.54
2022-08-25T09:37:05.748Z,1008.52
2022-08-25T09:38:05.858Z,1008.47
2022-08-25T09:39:05.719Z,1008.53
2022-08-25T09:40:05.781Z,1008.45
2022-08-25T09:41:05.703Z,1008.42
2022-08-25T09:42:05.693Z,1008.42
2022-08-25T09:43:05.673Z,1008.38
2022-08-25T09:44:05.660Z,1008.42
2022-08-25T09:45:05.843Z,1008.45
2022-08-25T09:46:05.710Z,1008.43
2022-08-25T09:47:05.621Z,1008.35
2022-08-25T09:48:05.776Z,1008.32
2022-08-25T09:49:05.606Z,1008.31
2022-08-25T09:50:05.721Z,1008.34
2022-08-25T09:51:05.582Z,1008.31
2022-08-25T09:52:05.579Z,1008.31
2022-08-25T09:53:17.463Z,1008.32
2022-08-25T09:54:10.811Z,1008.29
2022-08-25T09:55:05.543Z,1008.23
2022-08-25T09:56:05.544Z,1008.28
2022-08-25T09:57:05.552Z,1008.23
2022-08-25T09:58:09.467Z,1008.21
2022-08-25T09:59:05.502Z,1008.21
2022-08-25T10:00:06.501Z,1008.27
2022-08-25T10:01:05.514Z,1008.19
2022-08-25T10:02:05.598Z,1008.13
2022-08-25T10:03:05.618Z,1008.14
2022-08-25T10:04:05.498Z,1008.16
2022-08-25T10:05:05.470Z,1008.08
2022-08-25T10:06:05.429Z,1008.07
2022-08-25T10:07:05.421Z,1008.04
2022-08-25T10:08:05.402Z,1007.98
2022-08-25T10:09:05.955Z,1007.97
2022-08-25T10:10:05.389Z,1008.03
2022-08-25T10:11:06.526Z,1008.01
2022-08-25T10:12:05.371Z,1008.00
2022-08-25T10:13:06.234Z,1007.96
2022-08-25T10:14:05.332Z,1007.94
2022-08-25T10:15:05.345Z,1007.97
2022-08-25T10:16:05.508Z,1007.85
2022-08-25T10:17:06.309Z,1007.92
2022-08-25T10:18:05.297Z,1007.89
2022-08-25T10:19:05.305Z,1007.89
2022-08-25T10:20:05.266Z,1007.85
2022-08-25T10:21:07.506Z,1007.86
2022-08-25T10:22:05.267Z,1007.86
2022-08-25T10:23:05.464Z,1007.80
2022-08-25T10:24:05.264Z,1007.79
2022-08-25T10:25:05.224Z,1007.73
2022-08-25T10:26:05.228Z,1007.74
2022-08-25T10:27:05.197Z,1007.69
2022-08-25T10:28:05.341Z,1007.67
2022-08-25T10:29:05.211Z,1007.65
2022-08-25T10:30:05.166Z,1007.65
2022-08-25T10:31:05.211Z,1007.66
2022-08-25T10:32:07.062Z,1007.56
2022-08-25T10:33:06.334Z,1007.55
2022-08-25T10:34:05.145Z,1007.53
2022-08-25T10:35:05.134Z,1007.55
2022-08-25T10:36:05.115Z,1007.58
2022-08-25T10:37:05.103Z,1007.59
2022-08-25T10:38:05.092Z,1007.60
2022-08-25T10:39:05.066Z,1007.54
2022-08-25T10:40:06.117Z,1007.57
2022-08-25T10:41:05.063Z,1007.53
2022-08-25T10:42:05.268Z,1007.43
2022-08-25T10:43:05.208Z,1007.45
2022-08-25T10:44:05.022Z,1007.44
2022-08-25T10:45:05.017Z,1007.40
2022-08-25T10:46:05.058Z,1007.39
2022-08-25T10:47:05.433Z,1007.36
2022-08-25T10:48:05.003Z,1007.28
2022-08-25T10:49:05.000Z,1007.29
2022-08-25T10:50:04.968Z,1007.26
2022-08-25T10:51:04.953Z,1007.23
2022-08-25T10:52:04.965Z,1007.27
2022-08-25T10:53:05.028Z,1007.15
2022-08-25T10:54:04.939Z,1007.19
2022-08-25T10:55:04.914Z,1007.21
2022-08-25T10:56:07.449Z,1007.23
2022-08-25T10:57:08.072Z,1007.26
2022-08-25T10:58:04.892Z,1007.29
2022-08-25T10:59:05.821Z,1007.23
2022-08-25T11:00:04.891Z,1007.21
2022-08-25T11:01:04.868Z,1007.21
2022-08-25T11:02:04.895Z,1007.13
2022-08-25T11:03:05.899Z,1007.22
2022-08-25T11:04:04.879Z,1007.18
2022-08-25T11:05:04.931Z,1007.19
2022-08-25T11:06:04.805Z,1007.21
2022-08-25T11:07:04.781Z,1007.20
2022-08-25T11:08:04.773Z,1007.18
2022-08-25T11:09:05.381Z,1007.15
2022-08-25T11:10:04.750Z,1007.15
2022-08-25T11:11:04.761Z,1007.08
2022-08-25T11:12:04.741Z,1007.19
2022-08-25T11:13:04.857Z,1007.15
2022-08-25T11:14:09.419Z,1007.18
2022-08-25T11:15:05.706Z,1007.16
2022-08-25T11:16:21.716Z,1007.11
2022-08-25T11:17:06.067Z,1007.13
2022-08-25T11:18:05.107Z,1007.10
2022-08-25T11:19:05.735Z,1007.02
2022-08-25T11:20:04.664Z,1006.98
2022-08-25T11:21:04.643Z,1006.99
2022-08-25T11:22:04.631Z,1007.01
2022-08-25T11:23:04.708Z,1006.92
2022-08-25T11:24:04.631Z,1006.93
2022-08-25T11:25:04.604Z,1006.95
2022-08-25T11:26:04.603Z,1006.96
2022-08-25T11:27:04.584Z,1006.93
2022-08-25T11:28:04.726Z,1006.89
2022-08-25T11:29:04.565Z,1006.93
2022-08-25T11:30:06.079Z,1006.93
2022-08-25T11:31:05.124Z,1006.97
2022-08-25T11:32:04.526Z,1006.88
2022-08-25T11:33:04.521Z,1006.89
2022-08-25T11:34:04.506Z,1006.87
2022-08-25T11:35:04.499Z,1006.86
2022-08-25T11:36:04.495Z,1006.84
2022-08-25T11:37:04.476Z,1006.90
2022-08-25T11:38:04.757Z,1006.87
2022-08-25T11:39:04.475Z,1006.84
2022-08-25T11:40:04.510Z,1006.87
2022-08-25T11:41:04.444Z,1006.95
2022-08-25T11:42:05.449Z,1006.96
2022-08-25T11:43:04.427Z,1006.88
2022-08-25T11:44:04.412Z,1006.89
2022-08-25T11:45:04.412Z,1006.93
2022-08-25T11:46:04.505Z,1006.96
2022-08-25T11:47:05.641Z,1006.93
2022-08-25T11:48:04.614Z,1006.94
2022-08-25T11:49:05.312Z,1006.94
2022-08-25T11:50:04.351Z,1006.93
2022-08-25T11:51:04.905Z,1006.92
2022-08-25T11:52:04.351Z,1006.86
2022-08-25T11:53:04.343Z,1007.06
2022-08-25T11:54:05.331Z,1006.95
2022-08-25T11:55:04.300Z,1006.92
2022-08-25T11:56:04.326Z,1006.97
2022-08-25T11:57:04.283Z,1006.80
2022-08-25T11:58:04.437Z,1006.80
2022-08-25T11:59:04.263Z,1006.81
2022-08-25T12:00:04.264Z,1006.74
2022-08-25T12:01:04.241Z,1006.71
2022-08-25T12:02:04.238Z,1006.72
2022-08-25T12:03:04.224Z,1006.72
2022-08-25T12:04:04.258Z,1006.80
2022-08-25T12:05:04.396Z,1006.75
2022-08-25T12:06:04.188Z,1006.83
2022-08-25T12:07:04.178Z,1006.77
2022-08-25T12:08:04.293Z,1006.77
2022-08-25T12:09:04.166Z,1006.74